No particular awareness of the weather is required.    There are no Weather-warnings


Meteo18 Weather Cam more information Meteo18 Weather Cam


Thunder radar more information blitzortung!


Rain radar more information rain snow radar


Visit our other weather sites:

Template documentation
and downloads

And another site



Weather Underground History page Text

Daily Summary for July 17, 2017 Units:  English    Metric   Both
« Previous Day
Next Day »
Daily Weekly Monthly Yearly Custom
  High: Low: Average:
Temperature: TemperatureC °F 16.9 °F 24.7 °F
Dew Point: DewpointC °F 14.7 °F 15.7 °F
Humidity: Humidity % 38 % 60 %
Wind Speed: WindSpeedKMH mph 0.0 mph 3.7 mph
Wind Gust: WindSpeedGustKMH mph - -
Wind:- - SE
Pressure: PressurehPa in 1017.5 in -
Precipitation: 0.0 in    
Historical Graphs
 
 
Tabular Data for July 17, 2017
Time Temperature Dew Point Pressure Wind Wind Speed Wind Gust Humidity Rainfall Rate (Hourly)
TemperatureC °F DewpointC °F PressurehPa in Calm     Humidity % HourlyPrecipMM in
00:07 20.4 °F 15.6 °F 1022.6 in Calm   3.2 mph 74 % 0.0 in
00:12 20.3 °F 15.5 °F 1022.6 in Calm   3.2 mph 74 % 0.0 in
00:17 20.2 °F 15.6 °F 1022.6 in Calm   3.2 mph 75 % 0.0 in
00:22 20.1 °F 15.5 °F 1022.6 in Calm   3.2 mph 75 % 0.0 in
00:27 20.2 °F 15.4 °F 1022.6 in NNW 1.6 mph 1.6 mph 74 % 0.0 in
00:32 20.5 °F 15.5 °F 1022.6 in NNW 1.6 mph 1.6 mph 73 % 0.0 in
00:42 20.9 °F 15.4 °F 1022.6 in Calm   3.2 mph 71 % 0.0 in
00:52 20.8 °F 15.3 °F 1022.2 in Calm   3.2 mph 71 % 0.0 in
00:57 20.6 °F 15.4 °F 1022.2 in Calm   1.6 mph 72 % 0.0 in
01:02 20.1 °F 15.5 °F 1022.2 in WNW 1.6 mph 3.2 mph 75 % 0.0 in
01:07 19.9 °F 15.5 °F 1022.2 in WNW 1.6 mph 3.2 mph 76 % 0.0 in
01:12 19.8 °F 15.4 °F 1022.2 in Calm   3.2 mph 76 % 0.0 in
01:17 19.6 °F 15.5 °F 1022.2 in Calm   3.2 mph 77 % 0.0 in
01:22 19.4 °F 15.3 °F 1022.2 in Calm   1.6 mph 77 % 0.0 in
01:27 19.4 °F 15.5 °F 1022.2 in Calm   1.6 mph 78 % 0.0 in
01:32 19.4 °F 15.5 °F 1022.2 in Calm   1.6 mph 78 % 0.0 in
01:37 19.3 °F 15.4 °F 1022.2 in Calm   1.6 mph 78 % 0.0 in
01:42 19.2 °F 15.3 °F 1022.2 in Calm   1.6 mph 78 % 0.0 in
01:47 19.2 °F 15.5 °F 1022.2 in Calm   1.6 mph 79 % 0.0 in
01:52 19.1 °F 15.4 °F 1022.2 in Calm   1.6 mph 79 % 0.0 in
01:57 18.9 °F 15.2 °F 1022.2 in WNW 1.6 mph 1.6 mph 79 % 0.0 in
02:02 18.8 °F 15.3 °F 1021.9 in WNW 1.6 mph 3.2 mph 80 % 0.0 in
02:07 18.7 °F 15.4 °F 1022.2 in WNW 1.6 mph 3.2 mph 81 % 0.0 in
02:17 18.5 °F 15.2 °F 1021.9 in Calm   3.2 mph 81 % 0.0 in
02:22 18.4 °F 15.1 °F 1021.9 in Calm   1.6 mph 81 % 0.0 in
02:27 18.4 °F 15.3 °F 1021.9 in Calm   1.6 mph 82 % 0.0 in
02:32 18.4 °F 15.3 °F 1021.9 in Calm   1.6 mph 82 % 0.0 in
02:37 18.4 °F 15.1 °F 1021.9 in Calm   1.6 mph 81 % 0.0 in
02:42 18.2 °F 15.1 °F 1021.9 in Calm   1.6 mph 82 % 0.0 in
02:47 18.1 °F 15.2 °F 1021.9 in WNW 1.6 mph 1.6 mph 83 % 0.0 in
02:52 17.9 °F 15.0 °F 1021.9 in WNW 1.6 mph 3.2 mph 83 % 0.0 in
02:57 17.8 °F 15.1 °F 1021.9 in Calm   3.2 mph 84 % 0.0 in
03:02 17.7 °F 15.0 °F 1021.9 in Calm   3.2 mph 84 % 0.0 in
03:07 18.0 °F 15.3 °F 1021.6 in Calm   3.2 mph 84 % 0.0 in
03:12 18.1 °F 15.2 °F 1021.6 in NW 1.6 mph 1.6 mph 83 % 0.0 in
03:17 17.9 °F 15.2 °F 1021.6 in WNW 1.6 mph 3.2 mph 84 % 0.0 in
03:22 17.8 °F 15.1 °F 1021.6 in Calm   3.2 mph 84 % 0.0 in
03:27 17.9 °F 15.2 °F 1021.6 in Calm   3.2 mph 84 % 0.0 in
03:32 18.1 °F 15.2 °F 1021.6 in Calm   3.2 mph 83 % 0.0 in
03:37 18.1 °F 15.2 °F 1021.6 in Calm   1.6 mph 83 % 0.0 in
03:42 17.9 °F 15.0 °F 1021.6 in North 1.6 mph 1.6 mph 83 % 0.0 in
03:47 18.0 °F 15.3 °F 1021.6 in NNW 3.2 mph 3.2 mph 84 % 0.0 in
03:52 18.3 °F 15.4 °F 1021.6 in North 4.8 mph 6.4 mph 83 % 0.0 in
03:57 18.3 °F 15.2 °F 1021.6 in WNW 4.8 mph 6.4 mph 82 % 0.0 in
04:02 18.5 °F 15.4 °F 1021.6 in NW 3.2 mph 8.0 mph 82 % 0.0 in
04:07 18.6 °F 15.3 °F 1021.6 in NW 1.6 mph 8.0 mph 81 % 0.0 in
04:12 18.8 °F 15.3 °F 1021.6 in NW 1.6 mph 6.4 mph 80 % 0.0 in
04:17 18.8 °F 15.5 °F 1021.6 in WNW 3.2 mph 4.8 mph 81 % 0.0 in
04:27 18.9 °F 15.4 °F 1021.6 in Calm   4.8 mph 80 % 0.0 in
04:32 18.7 °F 15.4 °F 1021.6 in NNW 1.6 mph 4.8 mph 81 % 0.0 in
04:37 18.6 °F 15.3 °F 1021.6 in Calm   3.2 mph 81 % 0.0 in
04:42 18.6 °F 15.3 °F 1021.6 in Calm   3.2 mph 81 % 0.0 in
04:47 18.4 °F 15.3 °F 1021.6 in North 1.6 mph 1.6 mph 82 % 0.0 in
04:52 18.4 °F 15.3 °F 1021.6 in North 1.6 mph 1.6 mph 82 % 0.0 in
04:57 18.4 °F 15.3 °F 1021.6 in NNW 1.6 mph 1.6 mph 82 % 0.0 in
05:07 18.3 °F 15.2 °F 1021.6 in Calm   1.6 mph 82 % 0.0 in
05:12 18.2 °F 15.3 °F 1021.6 in NW 1.6 mph 1.6 mph 83 % 0.0 in
05:17 18.3 °F 15.5 °F 1021.6 in Calm   3.2 mph 84 % 0.0 in
05:22 17.9 °F 15.0 °F 1021.6 in Calm   3.2 mph 83 % 0.0 in
05:32 17.6 °F 15.0 °F 1021.6 in WNW 1.6 mph 3.2 mph 85 % 0.0 in
05:37 17.4 °F 15.0 °F 1021.6 in WNW 1.6 mph 1.6 mph 86 % 0.0 in
05:42 17.4 °F 15.2 °F 1021.6 in Calm   1.6 mph 87 % 0.0 in
05:52 17.3 °F 14.9 °F 1021.9 in Calm   1.6 mph 86 % 0.0 in
05:57 17.3 °F 15.1 °F 1021.9 in Calm   1.6 mph 87 % 0.0 in
06:02 17.3 °F 15.1 °F 1021.9 in Calm   1.6 mph 87 % 0.0 in
06:12 17.2 °F 15.2 °F 1021.9 in Calm   1.6 mph 88 % 0.0 in
06:17 17.3 °F 15.3 °F 1021.9 in Calm   1.6 mph 88 % 0.0 in
06:22 17.4 °F 15.4 °F 1021.9 in WNW 1.6 mph 1.6 mph 88 % 0.0 in
06:32 17.4 °F 15.0 °F 1021.9 in Calm   1.6 mph 86 % 0.0 in
06:42 16.9 °F 15.1 °F 1021.9 in Calm   1.6 mph 89 % 0.0 in
06:47 17.0 °F 15.2 °F 1021.9 in Calm   1.6 mph 89 % 0.0 in
06:52 17.1 °F 15.3 °F 1021.9 in Calm   1.6 mph 89 % 0.0 in
07:02 17.6 °F 15.6 °F 1021.9 in Calm     88 % 0.0 in
07:12 18.1 °F 15.9 °F 1021.9 in Calm     87 % 0.0 in
07:17 18.4 °F 16.2 °F 1021.9 in Calm     87 % 0.0 in
07:27 20.0 °F 17.2 °F 1021.9 in Calm     84 % 0.0 in
07:32 20.3 °F 16.7 °F 1021.9 in Calm     80 % 0.0 in
07:42 20.5 °F 16.7 °F 1021.9 in Calm     79 % 0.0 in
07:47 20.5 °F 16.5 °F 1021.9 in NNE 1.6 mph 3.2 mph 78 % 0.0 in
07:52 20.6 °F 16.8 °F 1021.9 in NNE 3.2 mph 4.8 mph 79 % 0.0 in
07:57 20.7 °F 16.9 °F 1021.9 in Calm   4.8 mph 79 % 0.0 in
08:02 21.1 °F 17.1 °F 1021.9 in NNE 3.2 mph 4.8 mph 78 % 0.0 in
08:12 21.4 °F 17.0 °F 1022.2 in NNE 1.6 mph 3.2 mph 76 % 0.0 in
08:17 21.6 °F 17.2 °F 1022.2 in Calm   3.2 mph 76 % 0.0 in
08:22 21.9 °F 17.3 °F 1022.2 in ENE 1.6 mph 3.2 mph 75 % 0.0 in
08:32 21.9 °F 17.3 °F 1022.2 in ENE 1.6 mph 3.2 mph 75 % 0.0 in
08:42 22.3 °F 17.7 °F 1021.9 in ENE 1.6 mph 4.8 mph 75 % 0.0 in
08:47 22.5 °F 17.6 °F 1021.9 in NE 3.2 mph 4.8 mph 74 % 0.0 in
08:52 22.7 °F 17.2 °F 1022.2 in East 3.2 mph 4.8 mph 71 % 0.0 in
08:57 22.9 °F 17.4 °F 1021.9 in Calm   4.8 mph 71 % 0.0 in
09:02 23.2 °F 17.4 °F 1021.9 in North 3.2 mph 4.8 mph 70 % 0.0 in
09:12 24.1 °F 17.6 °F 1021.9 in Calm   4.8 mph 67 % 0.0 in
09:17 24.5 °F 17.2 °F 1021.9 in SW 3.2 mph 3.2 mph 64 % 0.0 in
09:22 24.6 °F 17.6 °F 1021.9 in SSW 4.8 mph 4.8 mph 65 % 0.0 in
09:32 24.7 °F 17.2 °F 1021.9 in SE 1.6 mph 3.2 mph 63 % 0.0 in
09:42 25.9 °F 17.5 °F 1021.9 in Calm   4.8 mph 60 % 0.0 in
09:52 26.1 °F 17.2 °F 1021.9 in SW 6.4 mph 6.4 mph 58 % 0.0 in
09:57 25.8 °F 16.9 °F 1021.9 in East 3.2 mph 6.4 mph 58 % 0.0 in
10:02 26.1 °F 17.2 °F 1021.9 in Calm   6.4 mph 58 % 0.0 in
10:12 26.3 °F 16.8 °F 1021.9 in Calm   6.4 mph 56 % 0.0 in
10:17 26.6 °F 16.8 °F 1021.6 in WSW 3.2 mph 9.7 mph 55 % 0.0 in
10:22 26.6 °F 17.1 °F 1021.6 in Calm   9.7 mph 56 % 0.0 in
10:32 26.8 °F 17.0 °F 1021.6 in East 6.4 mph 6.4 mph 55 % 0.0 in
10:42 26.6 °F 17.1 °F 1021.6 in SE 4.8 mph 9.7 mph 56 % 0.0 in
10:52 26.7 °F 17.5 °F 1021.6 in ENE 3.2 mph 9.7 mph 57 % 0.0 in
10:57 26.8 °F 16.7 °F 1021.6 in ENE 11.3 mph 12.9 mph 54 % 0.0 in
11:02 26.8 °F 17.3 °F 1021.6 in East 3.2 mph 12.9 mph 56 % 0.0 in
11:12 26.9 °F 17.1 °F 1021.6 in East 4.8 mph 14.5 mph 55 % 0.0 in
11:17 27.4 °F 17.3 °F 1021.6 in ENE 11.3 mph 14.5 mph 54 % 0.0 in
11:22 27.6 °F 17.2 °F 1021.6 in Calm   12.9 mph 53 % 0.0 in
11:32 27.7 °F 16.9 °F 1021.2 in SE 4.8 mph 11.3 mph 52 % 0.0 in
11:42 27.8 °F 17.3 °F 1021.2 in ENE 9.7 mph 11.3 mph 53 % 0.0 in
11:47 27.8 °F 17.0 °F 1021.2 in East 8.0 mph 14.5 mph 52 % 0.0 in
11:52 27.7 °F 16.9 °F 1021.2 in NE 9.7 mph 20.9 mph 52 % 0.0 in
11:57 27.7 °F 16.6 °F 1021.2 in ENE 3.2 mph 20.9 mph 51 % 0.0 in
12:02 27.7 °F 16.9 °F 1021.2 in NE 8.0 mph 25.7 mph 52 % 0.0 in
12:12 27.9 °F 16.8 °F 1021.2 in ENE 11.3 mph 25.7 mph 51 % 0.0 in
12:17 28.1 °F 17.0 °F 1020.9 in NE 4.8 mph 14.5 mph 51 % 0.0 in
12:22 27.8 °F 17.0 °F 1020.9 in NE 4.8 mph 14.5 mph 52 % 0.0 in
12:32 28.1 °F 17.3 °F 1020.9 in NE 9.7 mph 16.1 mph 52 % 0.0 in
12:37 28.3 °F 16.9 °F 1020.9 in ENE 11.3 mph 16.1 mph 50 % 0.0 in
12:42 28.0 °F 16.9 °F 1020.9 in ENE 8.0 mph 16.1 mph 51 % 0.0 in
12:47 28.2 °F 17.4 °F 1020.9 in SSE 1.6 mph 17.7 mph 52 % 0.0 in
12:52 28.7 °F 16.6 °F 1020.9 in ENE 12.9 mph 17.7 mph 48 % 0.0 in
12:57 28.9 °F 16.8 °F 1020.9 in ESE 8.0 mph 17.7 mph 48 % 0.0 in
13:02 28.8 °F 16.7 °F 1020.5 in ESE 1.6 mph 17.7 mph 48 % 0.0 in
13:12 28.5 °F 17.1 °F 1020.5 in NE 11.3 mph 19.3 mph 50 % 0.0 in
13:17 28.7 °F 16.6 °F 1020.5 in ENE 16.1 mph 17.7 mph 48 % 0.0 in
13:22 29.1 °F 16.6 °F 1020.5 in NE 16.1 mph 17.7 mph 47 % 0.0 in
13:32 28.4 °F 16.0 °F 1020.5 in NE 9.7 mph 17.7 mph 47 % 0.0 in
13:37 28.7 °F 16.3 °F 1020.2 in NNE 3.2 mph 17.7 mph 47 % 0.0 in
13:42 28.7 °F 15.9 °F 1020.5 in NE 9.7 mph 20.9 mph 46 % 0.0 in
13:47 28.4 °F 15.7 °F 1020.2 in NE 6.4 mph 20.9 mph 46 % 0.0 in
13:57 29.2 °F 16.0 °F 1020.2 in ENE 14.5 mph 19.3 mph 45 % 0.0 in
14:02 29.1 °F 16.0 °F 1020.2 in NNE 4.8 mph 19.3 mph 45 % 0.0 in
14:07 29.4 °F 15.9 °F 1020.2 in ESE 16.1 mph 19.3 mph 44 % 0.0 in
14:12 29.6 °F 15.3 °F 1020.2 in ENE 11.3 mph 20.9 mph 42 % 0.0 in
14:17 29.7 °F 15.8 °F 1020.2 in ENE 8.0 mph 20.9 mph 43 % 0.0 in
14:22 29.4 °F 14.8 °F 1019.9 in ENE 1.6 mph 20.9 mph 41 % 0.0 in
14:27 29.6 °F 15.7 °F 1019.9 in East 9.7 mph 19.3 mph 43 % 0.0 in
14:32 29.9 °F 16.0 °F 1019.9 in ENE 14.5 mph 19.3 mph 43 % 0.0 in
14:37 29.8 °F 15.9 °F 1019.9 in ESE 3.2 mph 19.3 mph 43 % 0.0 in
14:42 29.8 °F 15.9 °F 1019.9 in ENE 9.7 mph 20.9 mph 43 % 0.0 in
14:47 29.8 °F 15.5 °F 1019.9 in ENE 4.8 mph 20.9 mph 42 % 0.0 in
14:52 29.8 °F 15.9 °F 1019.9 in East 3.2 mph 20.9 mph 43 % 0.0 in
14:57 30.2 °F 15.5 °F 1019.9 in SE 8.0 mph 16.1 mph 41 % 0.0 in
15:02 30.7 °F 15.5 °F 1019.5 in ENE 12.9 mph 12.9 mph 40 % 0.0 in
15:12 30.7 °F 15.2 °F 1019.5 in East 9.7 mph 24.1 mph 39 % 0.0 in
15:17 30.6 °F 14.7 °F 1019.5 in ENE 11.3 mph 24.1 mph 38 % 0.0 in
15:22 30.4 °F 14.9 °F 1019.5 in NE 4.8 mph 27.4 mph 39 % 0.0 in
15:32 30.3 °F 14.8 °F 1019.5 in ENE 11.3 mph 22.5 mph 39 % 0.0 in
15:37 30.3 °F 14.8 °F 1019.2 in ENE 11.3 mph 22.5 mph 39 % 0.0 in
15:42 30.5 °F 15.4 °F 1019.2 in East 6.4 mph 22.5 mph 40 % 0.0 in
15:47 30.7 °F 14.8 °F 1019.2 in East 6.4 mph 19.3 mph 38 % 0.0 in
15:52 30.8 °F 14.8 °F 1019.2 in ENE 16.1 mph 19.3 mph 38 % 0.0 in
15:57 30.8 °F 14.8 °F 1019.2 in ENE 6.4 mph 19.3 mph 38 % 0.0 in
16:02 30.7 °F 15.2 °F 1019.2 in ENE 3.2 mph 20.9 mph 39 % 0.0 in
16:12 31.5 °F 15.5 °F 1018.8 in ENE 11.3 mph 16.1 mph 38 % 0.0 in
16:17 30.7 °F 15.2 °F 1018.8 in NE 9.7 mph 17.7 mph 39 % 0.0 in
16:22 30.2 °F 15.1 °F 1018.8 in ESE 4.8 mph 17.7 mph 40 % 0.0 in
16:32 30.7 °F 15.2 °F 1018.8 in ENE 9.7 mph 14.5 mph 39 % 0.0 in
16:37 30.5 °F 15.4 °F 1018.8 in NE 6.4 mph 14.5 mph 40 % 0.0 in
16:42 31.0 °F 15.8 °F 1018.8 in NE 17.7 mph 17.7 mph 40 % 0.0 in
16:47 30.6 °F 15.5 °F 1018.8 in East 8.0 mph 19.3 mph 40 % 0.0 in
16:52 29.9 °F 15.6 °F 1018.8 in NNE 11.3 mph 19.3 mph 42 % 0.0 in
16:57 29.8 °F 15.1 °F 1018.8 in East 3.2 mph 19.3 mph 41 % 0.0 in
17:02 30.3 °F 15.6 °F 1018.8 in ESE 4.8 mph 17.7 mph 41 % 0.0 in
17:12 31.3 °F 16.1 °F 1018.5 in SE 6.4 mph 9.7 mph 40 % 0.0 in
17:17 31.2 °F 16.0 °F 1018.5 in East 9.7 mph 20.9 mph 40 % 0.0 in
17:22 31.3 °F 16.1 °F 1018.5 in ESE 6.4 mph 20.9 mph 40 % 0.0 in
17:27 31.1 °F 15.5 °F 1018.2 in ESE 8.0 mph 20.9 mph 39 % 0.0 in
17:32 31.1 °F 15.9 °F 1018.2 in ENE 11.3 mph 16.1 mph 40 % 0.0 in
17:37 31.2 °F 16.0 °F 1018.2 in ENE 3.2 mph 16.1 mph 40 % 0.0 in
17:42 31.3 °F 16.1 °F 1018.2 in ENE 6.4 mph 16.1 mph 40 % 0.0 in
17:47 31.2 °F 15.6 °F 1018.2 in ENE 8.0 mph 22.5 mph 39 % 0.0 in
17:52 30.6 °F 15.1 °F 1018.2 in ENE 14.5 mph 24.1 mph 39 % 0.0 in
17:57 30.4 °F 15.7 °F 1018.2 in ENE 11.3 mph 24.1 mph 41 % 0.0 in
18:02 30.8 °F 15.6 °F 1018.2 in ENE 11.3 mph 24.1 mph 40 % 0.0 in
18:07 30.7 °F 15.9 °F 1017.8 in East 1.6 mph 19.3 mph 41 % 0.0 in
18:12 31.0 °F 15.8 °F 1017.8 in ENE 3.2 mph 19.3 mph 40 % 0.0 in
18:17 31.1 °F 15.5 °F 1017.8 in ESE 4.8 mph 19.3 mph 39 % 0.0 in
18:22 30.9 °F 15.3 °F 1017.8 in SSE 6.4 mph 19.3 mph 39 % 0.0 in
18:27 30.9 °F 15.7 °F 1017.8 in ENE 6.4 mph 19.3 mph 40 % 0.0 in
18:32 31.3 °F 15.7 °F 1017.8 in East 3.2 mph 14.5 mph 39 % 0.0 in
18:42 30.9 °F 15.3 °F 1017.8 in ENE 4.8 mph 19.3 mph 39 % 0.0 in
18:47 30.7 °F 15.2 °F 1017.8 in NE 6.4 mph 24.1 mph 39 % 0.0 in
18:52 30.4 °F 15.3 °F 1017.8 in ENE 12.9 mph 24.1 mph 40 % 0.0 in
18:57 30.3 °F 15.6 °F 1017.8 in ENE 9.7 mph 24.1 mph 41 % 0.0 in
19:02 30.3 °F 15.2 °F 1017.8 in ENE 6.4 mph 19.3 mph 40 % 0.0 in
19:07 30.5 °F 15.4 °F 1017.8 in East 8.0 mph 19.3 mph 40 % 0.0 in
19:12 30.4 °F 15.3 °F 1017.8 in ENE 4.8 mph 19.3 mph 40 % 0.0 in
19:22 30.5 °F 15.4 °F 1017.5 in ENE 4.8 mph 16.1 mph 40 % 0.0 in
19:32 30.6 °F 15.5 °F 1017.5 in ESE 6.4 mph 11.3 mph 40 % 0.0 in
19:37 30.8 °F 15.6 °F 1017.5 in ESE 1.6 mph 11.3 mph 40 % 0.0 in
19:42 30.7 °F 15.2 °F 1017.5 in East 6.4 mph 9.7 mph 39 % 0.0 in
19:47 30.5 °F 15.4 °F 1017.5 in East 8.0 mph 19.3 mph 40 % 0.0 in
19:52 30.4 °F 15.3 °F 1017.5 in East 1.6 mph 19.3 mph 40 % 0.0 in
19:57 30.4 °F 15.3 °F 1017.5 in East 11.3 mph 19.3 mph 40 % 0.0 in
20:02 30.3 °F 15.2 °F 1017.5 in East 1.6 mph 16.1 mph 40 % 0.0 in
20:12 30.4 °F 15.3 °F 1017.5 in ENE 3.2 mph 16.1 mph 40 % 0.0 in
20:17 30.1 °F 15.0 °F 1017.5 in East 8.0 mph 11.3 mph 40 % 0.0 in
20:22 29.9 °F 15.2 °F 1017.5 in East 4.8 mph 11.3 mph 41 % 0.0 in
20:27 29.9 °F 15.2 °F 1017.5 in East 1.6 mph 11.3 mph 41 % 0.0 in
20:32 29.9 °F 15.2 °F 1017.5 in East 4.8 mph 11.3 mph 41 % 0.0 in
20:37 29.8 °F 15.1 °F 1017.5 in ESE 1.6 mph 11.3 mph 41 % 0.0 in
20:42 29.7 °F 15.0 °F 1017.5 in East 3.2 mph 9.7 mph 41 % 0.0 in
20:47 29.6 °F 15.3 °F 1017.5 in NE 1.6 mph 9.7 mph 42 % 0.0 in
20:52 29.4 °F 15.1 °F 1017.5 in East 1.6 mph 8.0 mph 42 % 0.0 in
20:57 29.2 °F 15.3 °F 1017.5 in East 1.6 mph 8.0 mph 43 % 0.0 in
21:02 29.1 °F 15.2 °F 1017.5 in East 1.6 mph 6.4 mph 43 % 0.0 in
21:07 28.8 °F 15.3 °F 1017.5 in Calm   6.4 mph 44 % 0.0 in
21:12 28.5 °F 15.4 °F 1017.8 in East 1.6 mph 3.2 mph 45 % 0.0 in
21:17 28.2 °F 15.5 °F 1017.8 in Calm   3.2 mph 46 % 0.0 in
21:22 27.9 °F 15.5 °F 1017.8 in Calm   3.2 mph 47 % 0.0 in
21:32 27.3 °F 15.6 °F 1017.5 in Calm   1.6 mph 49 % 0.0 in
21:37 27.1 °F 15.8 °F 1017.8 in Calm   1.6 mph 50 % 0.0 in
21:42 26.8 °F 16.1 °F 1017.8 in Calm   1.6 mph 52 % 0.0 in
21:52 26.1 °F 15.8 °F 1017.8 in Calm   1.6 mph 53 % 0.0 in
21:57 25.8 °F 15.8 °F 1017.8 in Calm     54 % 0.0 in
22:07 25.3 °F 15.6 °F 1017.8 in Calm     55 % 0.0 in
22:12 25.1 °F 15.7 °F 1017.8 in Calm     56 % 0.0 in
22:17 25.1 °F 15.7 °F 1017.8 in North 1.6 mph   56 % 0.0 in
22:22 25.0 °F 15.6 °F 1017.8 in Calm   1.6 mph 56 % 0.0 in
22:27 24.8 °F 15.7 °F 1017.8 in NW 1.6 mph 1.6 mph 57 % 0.0 in
22:32 24.6 °F 15.5 °F 1017.8 in Calm   3.2 mph 57 % 0.0 in
22:37 24.3 °F 15.5 °F 1017.8 in Calm   3.2 mph 58 % 0.0 in
22:42 24.1 °F 15.6 °F 1017.8 in Calm   3.2 mph 59 % 0.0 in
22:47 24.0 °F 15.5 °F 1017.8 in NNW 1.6 mph   59 % 0.0 in
22:52 23.9 °F 15.4 °F 1017.8 in North 1.6 mph 3.2 mph 59 % 0.0 in
22:57 23.8 °F 15.6 °F 1017.8 in North 1.6 mph 3.2 mph 60 % 0.0 in
23:02 23.7 °F 15.5 °F 1017.8 in Calm   3.2 mph 60 % 0.0 in
23:12 23.1 °F 15.7 °F 1017.8 in Calm   3.2 mph 63 % 0.0 in
23:17 22.8 °F 15.6 °F 1017.8 in Calm   1.6 mph 64 % 0.0 in
23:22 22.6 °F 15.7 °F 1017.8 in Calm   1.6 mph 65 % 0.0 in
23:27 22.7 °F 15.8 °F 1017.8 in Calm   1.6 mph 65 % 0.0 in
23:32 22.6 °F 15.7 °F 1017.8 in NNE 3.2 mph 3.2 mph 65 % 0.0 in
23:37 22.4 °F 15.7 °F 1017.8 in NNW 3.2 mph 4.8 mph 66 % 0.0 in
23:42 22.4 °F 15.7 °F 1017.8 in NW 1.6 mph 4.8 mph 66 % 0.0 in
23:47 22.5 °F 15.8 °F 1017.8 in Calm   4.8 mph 66 % 0.0 in
23:52 22.3 °F 15.6 °F 1017.8 in Calm   4.8 mph 66 % 0.0 in
23:57 22.2 °F 15.8 °F 1017.8 in Calm   4.8 mph 67 % 0.0 in
Meteo18
Compliments of Weather Underground - 4 mb

Script developed by  Jim McMurry - jmcmurry@mwt.net Adapted for the template by  Wim van der Kuil - Leuven-Template.eu

You find our weather info also at:

European Weather Network

Weather Underground

Equipment we use:

Weather-station
Davis Vue

Weather-program
Meteobridge

Weather-server
Raspberry PI 2 B+

Provider
1 and 1

Davis Vue

Meteobridge

Raspberry PI 2 B+

1 and 1